createdAt,value
2018-09-02T11:09:29.673Z,94958.09
2018-09-02T11:11:58.629Z,94950.16
2018-09-02T11:14:27.566Z,94955.80
2018-09-02T11:16:56.452Z,94944.44
2018-09-02T11:19:25.355Z,94942.78
2018-09-02T11:21:54.237Z,94944.67
2018-09-02T11:24:23.244Z,94944.50
2018-09-02T11:26:51.964Z,94935.62
2018-09-02T11:29:21.028Z,94926.09
2018-09-02T11:31:49.842Z,94931.73
2018-09-02T11:34:18.578Z,94925.60
2018-09-02T11:36:47.503Z,94928.71
2018-09-02T11:39:16.306Z,94930.68
2018-09-02T11:41:45.342Z,94931.86
2018-09-02T11:44:14.225Z,94927.59
2018-09-02T11:46:43.205Z,94925.45
2018-09-02T11:49:12.072Z,94919.81
2018-09-02T11:51:40.800Z,94918.73
2018-09-02T11:54:09.681Z,94917.91
2018-09-02T11:56:38.539Z,94910.11
2018-09-02T11:59:07.570Z,94924.80
2018-09-02T12:01:36.598Z,94922.86
2018-09-02T12:04:05.488Z,94913.63
2018-09-02T12:06:34.243Z,94916.44
2018-09-02T12:09:03.298Z,94906.20
2018-09-02T12:11:32.186Z,94916.69
2018-09-02T12:14:01.221Z,94901.06
2018-09-02T12:16:30.093Z,94903.75
2018-09-02T12:18:58.858Z,94892.88
2018-09-02T12:21:27.882Z,94896.63
2018-09-02T12:25:25.775Z,94892.64
2018-09-02T12:27:54.601Z,94893.95
2018-09-02T12:30:23.387Z,94889.91
2018-09-02T12:32:52.301Z,94887.09
2018-09-02T12:35:21.238Z,94886.27
2018-09-02T12:37:50.174Z,94881.42
2018-09-02T12:40:19.066Z,94879.17
2018-09-02T12:42:48.024Z,94881.09
2018-09-02T12:45:16.989Z,94873.53
2018-09-02T12:47:45.946Z,94874.45
2018-09-02T12:50:14.817Z,94880.29
2018-09-02T12:52:43.645Z,94881.92
2018-09-02T12:55:12.609Z,94879.53
2018-09-02T12:57:41.505Z,94879.28
2018-09-02T13:00:10.439Z,94873.33
2018-09-02T13:02:39.303Z,94873.05
2018-09-02T13:05:08.063Z,94871.45
2018-09-02T13:07:36.797Z,94869.59
2018-09-02T13:10:06.183Z,94864.73
2018-09-02T13:12:35.071Z,94862.13
2018-09-02T13:15:03.935Z,94866.80
2018-09-02T13:17:32.884Z,94866.66
2018-09-02T13:20:01.674Z,94871.08
2018-09-02T13:22:30.522Z,94866.52
2018-09-02T13:24:59.461Z,94866.29
2018-09-02T13:27:28.240Z,94867.87
2018-09-02T13:29:57.019Z,94866.16
2018-09-02T13:32:25.725Z,94871.84
2018-09-02T13:34:54.498Z,94870.48
2018-09-02T13:37:23.266Z,94866.88
2018-09-02T13:39:52.763Z,94867.08
2018-09-02T13:42:21.625Z,94863.55
2018-09-02T13:44:50.441Z,94860.06
2018-09-02T13:47:19.366Z,94865.50
2018-09-02T13:49:48.134Z,94849.58
2018-09-02T13:52:17.148Z,94851.49
2018-09-02T13:54:46.177Z,94850.13
2018-09-02T14:04:24.998Z,94848.76
2018-09-02T14:06:53.793Z,94846.73
2018-09-02T14:09:22.628Z,94845.29
2018-09-02T14:11:51.505Z,94848.86
2018-09-02T14:14:20.261Z,94845.08
2018-09-02T14:16:49.050Z,94843.28
2018-09-02T14:19:17.925Z,94846.52
2018-09-02T14:21:46.766Z,94848.14
2018-09-02T14:24:15.590Z,94846.68
2018-09-02T14:26:44.404Z,94835.91
2018-09-02T14:29:13.153Z,94845.84
2018-09-02T14:31:42.040Z,94829.98
2018-09-02T14:34:10.912Z,94838.73
2018-09-02T14:36:39.710Z,94828.86
2018-09-02T14:39:11.309Z,94834.16
2018-09-02T14:41:40.030Z,94835.82
2018-09-02T14:44:08.846Z,94835.53
2018-09-02T14:46:38.258Z,94837.38
2018-09-02T14:49:07.541Z,94838.27
2018-09-02T14:51:36.514Z,94829.09
2018-09-02T14:54:05.274Z,94830.83
2018-09-02T14:56:34.102Z,94834.53
2018-09-02T14:59:02.859Z,94827.89
2018-09-02T15:01:31.671Z,94831.38
2018-09-02T15:04:00.461Z,94824.78
2018-09-02T15:06:29.382Z,94823.80
2018-09-02T15:08:58.272Z,94826.85
2018-09-02T15:11:27.140Z,94830.52
2018-09-02T15:13:55.921Z,94820.30
2018-09-02T15:16:24.929Z,94821.95
2018-09-02T15:18:53.830Z,94813.69
2018-09-02T15:21:22.669Z,94815.63
2018-09-02T15:23:51.418Z,94815.22
2018-09-02T15:26:20.238Z,94808.17
2018-09-02T15:28:49.067Z,94811.50
2018-09-02T15:31:17.918Z,94810.73
2018-09-02T15:33:46.789Z,94813.05
2018-09-02T15:36:15.642Z,94803.19
2018-09-02T15:38:44.606Z,94807.47
2018-09-02T15:41:13.463Z,94808.89
2018-09-02T15:43:42.239Z,94807.67
2018-09-02T15:46:11.117Z,94807.23
2018-09-02T15:48:40.074Z,94804.23
2018-09-02T15:51:08.813Z,94803.41
2018-09-02T15:53:37.639Z,94800.13
2018-09-02T15:56:06.817Z,94796.23
2018-09-02T15:58:35.640Z,94793.30
2018-09-02T16:01:04.581Z,94791.29
2018-09-02T16:03:33.430Z,94790.84
2018-09-02T16:06:02.266Z,94800.64
2018-09-02T16:08:31.023Z,94786.73
2018-09-02T16:10:59.694Z,94797.38
2018-09-02T16:13:28.454Z,94790.66
2018-09-02T16:15:57.574Z,94789.19
2018-09-02T16:19:55.494Z,94790.35
2018-09-02T16:22:24.648Z,94785.34
2018-09-02T16:24:53.527Z,94785.17
2018-09-02T16:27:25.563Z,94785.98
2018-09-02T16:29:54.552Z,94796.27
2018-09-02T16:32:23.294Z,94788.39
2018-09-02T16:34:52.266Z,94792.09
2018-09-02T16:37:21.250Z,94793.34
2018-09-02T16:39:50.180Z,94801.16
2018-09-02T16:42:18.905Z,94797.11
2018-09-02T16:44:47.807Z,94801.16
2018-09-02T16:47:16.718Z,94799.80
2018-09-02T16:49:46.306Z,94795.78
2018-09-02T16:52:15.311Z,94798.48
2018-09-02T16:54:44.050Z,94792.12
2018-09-02T16:57:12.918Z,94799.99
2018-09-02T16:59:41.774Z,94806.36
2018-09-02T17:02:10.705Z,94804.03
2018-09-02T17:04:41.647Z,94808.84
2018-09-02T17:07:10.468Z,94799.85
2018-09-02T17:09:39.416Z,94802.37
2018-09-02T17:12:08.396Z,94799.61
2018-09-02T17:14:37.019Z,94807.83
2018-09-02T17:17:05.885Z,94808.69
2018-09-02T17:19:37.173Z,94806.06
2018-09-02T17:22:06.209Z,94815.75
2018-09-02T17:24:34.942Z,94815.65
2018-09-02T17:27:04.056Z,94815.98
2018-09-02T17:29:32.957Z,94817.66
2018-09-02T17:32:03.750Z,94820.64
2018-09-02T17:34:32.570Z,94823.14
2018-09-02T17:37:01.422Z,94827.64
2018-09-02T17:39:30.246Z,94831.41
2018-09-02T17:41:59.024Z,94829.34
2018-09-02T17:44:27.938Z,94830.98
2018-09-02T17:46:56.755Z,94834.69
2018-09-02T17:49:25.455Z,94835.78
2018-09-02T17:51:54.327Z,94832.56
2018-09-02T17:54:23.267Z,94834.18
2018-09-02T17:56:52.110Z,94837.70
2018-09-02T17:59:20.959Z,94834.50
2018-09-02T18:01:50.639Z,94844.91
2018-09-02T18:04:19.442Z,94849.22
2018-09-02T18:06:48.248Z,94849.48
2018-09-02T18:09:17.106Z,94852.41
2018-09-02T18:11:45.896Z,94849.74
2018-09-02T18:14:14.694Z,94848.16
2018-09-02T18:16:43.488Z,94853.23
2018-09-02T18:19:12.347Z,94847.42
2018-09-02T18:21:41.072Z,94853.55
2018-09-02T18:24:09.868Z,94850.59
2018-09-02T18:26:38.694Z,94853.00
2018-09-02T18:29:07.395Z,94852.73
2018-09-02T18:31:36.229Z,94844.19
2018-09-02T18:34:05.278Z,94846.84
2018-09-02T18:36:34.168Z,94852.40
2018-09-02T18:39:03.331Z,94854.77
2018-09-02T18:41:32.206Z,94854.24
2018-09-02T18:44:01.013Z,94853.40
2018-09-02T18:46:29.873Z,94850.73
2018-09-02T18:48:58.694Z,94850.17
2018-09-02T18:51:27.545Z,94850.41
2018-09-02T18:53:56.784Z,94843.22
2018-09-02T18:56:25.628Z,94850.66
2018-09-02T18:58:54.546Z,94851.63
2018-09-02T19:01:23.418Z,94849.23
2018-09-02T19:03:52.249Z,94850.56
2018-09-02T19:06:21.087Z,94847.05
2018-09-02T19:08:49.860Z,94849.68
2018-09-02T19:11:18.702Z,94846.13
2018-09-02T19:13:47.585Z,94852.52
2018-09-02T19:16:16.623Z,94851.45
2018-09-02T19:18:45.507Z,94850.41
2018-09-02T19:21:14.271Z,94848.77
2018-09-02T19:23:43.248Z,94848.71
2018-09-02T19:26:11.890Z,94843.91
2018-09-02T19:28:40.619Z,94844.40
2018-09-02T19:31:09.401Z,94844.59
2018-09-02T19:33:38.321Z,94851.92
2018-09-02T19:36:07.218Z,94846.34
2018-09-02T19:38:36.169Z,94850.05
2018-09-02T19:41:05.049Z,94844.72
2018-09-02T19:43:33.917Z,94846.73
2018-09-02T19:46:02.723Z,94848.30
2018-09-02T19:48:31.599Z,94848.77
2018-09-02T19:51:00.475Z,94845.52
2018-09-02T19:53:30.048Z,94853.23
2018-09-02T19:55:58.839Z,94850.78
2018-09-02T19:58:28.181Z,94850.48
2018-09-02T20:00:57.007Z,94849.59
2018-09-02T20:03:25.733Z,94853.84
2018-09-02T20:05:54.479Z,94853.58
2018-09-02T20:11:10.059Z,94845.03
2018-09-02T20:13:38.951Z,94843.95
2018-09-02T20:16:07.809Z,94840.53
2018-09-02T20:18:36.955Z,94837.30
2018-09-02T20:21:05.720Z,94840.99
2018-09-02T20:23:34.575Z,94839.77
2018-09-02T20:26:03.327Z,94841.91
2018-09-02T20:28:32.247Z,94836.78
2018-09-02T20:31:01.182Z,94834.95
2018-09-02T20:33:30.012Z,94834.58
2018-09-02T20:35:58.799Z,94839.87
2018-09-02T20:38:27.487Z,94837.67
2018-09-02T20:40:56.459Z,94835.77
2018-09-02T20:43:25.298Z,94834.13
2018-09-02T20:45:54.142Z,94835.96
2018-09-02T20:48:22.905Z,94832.16
2018-09-02T20:50:51.667Z,94834.30
2018-09-02T20:53:20.467Z,94824.63
2018-09-02T20:55:49.326Z,94829.19
2018-09-02T20:58:18.287Z,94831.73
2018-09-02T21:00:47.186Z,94827.44
2018-09-02T21:03:15.922Z,94831.05
2018-09-02T21:05:44.659Z,94828.27
2018-09-02T21:08:13.307Z,94826.57
2018-09-02T21:10:42.057Z,94830.20
2018-09-02T21:13:10.766Z,94836.55
2018-09-02T21:15:39.558Z,94825.66
2018-09-02T21:18:08.423Z,94824.30
2018-09-02T21:20:37.157Z,94827.17
2018-09-02T21:23:05.855Z,94822.88
2018-09-02T21:25:34.704Z,94822.44
2018-09-02T21:28:03.464Z,94824.67
2018-09-02T21:30:32.267Z,94814.31
2018-09-02T21:33:01.017Z,94815.42
2018-09-02T21:35:30.250Z,94804.03
2018-09-02T21:37:59.988Z,94807.91
2018-09-02T21:40:28.768Z,94814.65
2018-09-02T21:42:57.561Z,94810.13
2018-09-02T21:45:26.312Z,94813.50
2018-09-02T21:47:55.040Z,94806.81
2018-09-02T21:50:24.002Z,94803.30
2018-09-02T21:52:52.944Z,94801.52
2018-09-02T21:55:21.723Z,94801.98
2018-09-02T21:57:50.480Z,94804.13
2018-09-02T22:00:19.286Z,94804.84
2018-09-02T22:02:48.013Z,94803.73
2018-09-02T22:05:16.966Z,94796.75
2018-09-02T22:07:45.759Z,94801.72
2018-09-02T22:10:14.541Z,94800.19
2018-09-02T22:12:43.356Z,94793.02
2018-09-02T22:15:12.314Z,94792.73
2018-09-02T22:17:41.123Z,94801.08
2018-09-02T22:20:09.952Z,94798.06
2018-09-02T22:22:38.704Z,94791.91
2018-09-02T22:25:09.129Z,94791.12
2018-09-02T22:27:37.985Z,94792.78
2018-09-02T22:30:07.839Z,94789.96
2018-09-02T22:32:36.599Z,94789.80
2018-09-02T22:35:06.059Z,94789.92
2018-09-02T22:37:34.951Z,94787.81
2018-09-02T22:40:03.880Z,94786.45
2018-09-02T22:42:32.682Z,94782.23
2018-09-02T22:45:01.495Z,94777.97
2018-09-02T22:47:30.280Z,94787.73
2018-09-02T22:49:59.138Z,94788.77
2018-09-02T22:52:27.963Z,94786.09
2018-09-02T22:54:56.667Z,94780.29
2018-09-02T22:57:25.452Z,94783.69
2018-09-02T22:59:54.229Z,94783.56
2018-09-02T23:02:23.024Z,94779.55
2018-09-02T23:04:51.830Z,94778.77
2018-09-02T23:07:20.596Z,94776.83
2018-09-02T23:09:49.302Z,94775.25
2018-09-02T23:12:18.176Z,94766.20
2018-09-02T23:14:46.898Z,94774.71
2018-09-02T23:17:15.601Z,94769.22
2018-09-02T23:19:44.676Z,94766.03
2018-09-02T23:22:13.530Z,94766.73
2018-09-02T23:24:42.366Z,94762.22
2018-09-02T23:27:11.153Z,94768.30
2018-09-02T23:29:39.979Z,94760.65
2018-09-02T23:32:08.763Z,94760.45
2018-09-02T23:34:37.411Z,94756.48
2018-09-02T23:37:06.242Z,94765.98
2018-09-02T23:39:35.035Z,94758.47
2018-09-02T23:42:03.849Z,94759.62
2018-09-02T23:44:32.574Z,94756.81
2018-09-02T23:47:01.364Z,94752.25
2018-09-02T23:49:30.142Z,94758.00
2018-09-02T23:51:58.863Z,94758.78
2018-09-02T23:54:27.578Z,94755.60
2018-09-02T23:56:56.479Z,94761.06
2018-09-02T23:59:25.219Z,94747.12
